createdAt,value
2022-12-03T00:00:13.211Z,4.00
2022-12-03T00:02:43.142Z,4.00
2022-12-03T00:05:12.214Z,4.00
2022-12-03T00:07:42.328Z,3.90
2022-12-03T00:10:11.649Z,4.00
2022-12-03T00:12:40.144Z,3.90
2022-12-03T00:15:10.600Z,3.90
2022-12-03T00:17:39.000Z,3.90
2022-12-03T00:20:09.790Z,3.80
2022-12-03T00:22:37.881Z,3.80
2022-12-03T00:25:10.377Z,3.80
2022-12-03T00:27:38.602Z,3.80
2022-12-03T00:30:10.123Z,3.80
2022-12-03T00:32:38.457Z,3.70
2022-12-03T00:35:07.749Z,3.70
2022-12-03T00:37:36.542Z,3.60
2022-12-03T00:40:08.102Z,3.50
2022-12-03T00:42:39.350Z,3.60
2022-12-03T00:45:10.090Z,3.50
2022-12-03T00:47:39.049Z,3.50
2022-12-03T00:50:09.246Z,3.40
2022-12-03T00:52:37.521Z,3.40
2022-12-03T00:55:08.945Z,3.50
2022-12-03T00:57:37.150Z,3.50
2022-12-03T01:00:08.215Z,3.50
2022-12-03T01:02:36.872Z,3.50
2022-12-03T01:05:06.140Z,3.50
2022-12-03T01:07:34.847Z,3.50
2022-12-03T01:10:04.060Z,3.50
2022-12-03T01:12:33.534Z,3.40
2022-12-03T01:15:01.908Z,3.40
2022-12-03T01:17:32.442Z,3.40
2022-12-03T01:20:03.282Z,3.30
2022-12-03T01:22:32.053Z,3.30
2022-12-03T01:25:00.662Z,3.30
2022-12-03T01:27:29.150Z,3.30
2022-12-03T01:29:59.350Z,3.20
2022-12-03T01:32:27.010Z,3.20
2022-12-03T01:34:57.181Z,3.10
2022-12-03T01:37:27.624Z,3.10
2022-12-03T01:39:57.017Z,3.10
2022-12-03T01:42:28.597Z,3.00
2022-12-03T01:45:01.632Z,3.00
2022-12-03T01:47:34.676Z,3.00
2022-12-03T01:50:08.044Z,3.00
2022-12-03T01:52:40.629Z,3.00
2022-12-03T01:55:16.221Z,2.90
2022-12-03T01:57:50.835Z,2.90
2022-12-03T02:00:23.878Z,2.80
2022-12-03T02:02:56.566Z,2.80
2022-12-03T02:05:29.698Z,2.70
2022-12-03T02:07:59.576Z,2.80
2022-12-03T02:10:35.842Z,2.80
2022-12-03T02:13:08.625Z,2.80
2022-12-03T02:15:41.765Z,2.80
2022-12-03T02:18:13.753Z,2.80
2022-12-03T02:20:54.573Z,2.70
2022-12-03T02:23:34.553Z,2.80
2022-12-03T02:26:04.264Z,2.70
2022-12-03T02:28:33.010Z,2.70
2022-12-03T02:31:01.486Z,2.70
2022-12-03T02:33:29.694Z,2.70
2022-12-03T02:36:03.351Z,2.70
2022-12-03T02:38:35.250Z,2.70
2022-12-03T02:41:32.210Z,2.60
2022-12-03T02:43:59.416Z,2.50
2022-12-03T02:46:27.635Z,2.50
2022-12-03T02:48:57.156Z,2.50
2022-12-03T02:51:25.728Z,2.50
2022-12-03T02:53:57.357Z,2.40
2022-12-03T02:56:32.568Z,2.40
2022-12-03T02:59:06.288Z,2.40
2022-12-03T03:01:37.150Z,2.40
2022-12-03T03:04:07.350Z,2.30
2022-12-03T03:06:36.072Z,2.20
2022-12-03T03:09:04.579Z,2.20
2022-12-03T03:11:34.833Z,2.20
2022-12-03T03:14:05.453Z,2.20
2022-12-03T03:16:35.456Z,2.20
2022-12-03T03:19:05.722Z,2.10
2022-12-03T03:21:33.885Z,2.00
2022-12-03T03:24:01.918Z,2.10
2022-12-03T03:26:32.081Z,2.10
2022-12-03T03:29:03.055Z,2.10
2022-12-03T03:31:32.675Z,2.10
2022-12-03T03:34:03.813Z,2.00
2022-12-03T03:36:33.294Z,1.90
2022-12-03T03:39:02.992Z,1.80
2022-12-03T03:41:31.607Z,1.90
2022-12-03T03:44:03.737Z,1.90
2022-12-03T03:46:33.548Z,1.90
2022-12-03T03:49:05.880Z,1.90
2022-12-03T03:51:37.057Z,1.90
2022-12-03T03:54:06.829Z,1.90
2022-12-03T03:56:35.998Z,1.90
2022-12-03T03:59:06.030Z,1.90
2022-12-03T04:01:36.714Z,1.90
2022-12-03T04:04:06.716Z,1.90
2022-12-03T04:06:36.124Z,1.90
2022-12-03T04:09:04.319Z,1.90
2022-12-03T04:11:50.181Z,1.90
2022-12-03T04:14:20.780Z,1.90
2022-12-03T04:16:49.645Z,1.90
2022-12-03T04:19:17.936Z,1.80
2022-12-03T04:22:03.894Z,1.90
2022-12-03T04:24:32.237Z,1.90
2022-12-03T04:27:18.839Z,1.80
2022-12-03T04:29:51.913Z,1.80
2022-12-03T04:32:37.753Z,1.80
2022-12-03T04:35:24.750Z,1.80
2022-12-03T04:37:52.947Z,1.90
2022-12-03T04:40:39.250Z,1.90
2022-12-03T04:43:07.607Z,1.90
2022-12-03T04:45:37.395Z,1.80
2022-12-03T04:48:07.136Z,1.90
2022-12-03T04:50:35.246Z,1.90
2022-12-03T04:53:07.463Z,1.90
2022-12-03T04:55:35.878Z,1.90
2022-12-03T04:58:04.389Z,1.90
2022-12-03T05:00:32.559Z,1.80
2022-12-03T05:03:04.291Z,1.80
2022-12-03T05:05:32.383Z,1.80
2022-12-03T05:08:01.501Z,1.80
2022-12-03T05:10:30.204Z,1.70
2022-12-03T05:12:58.523Z,1.70
2022-12-03T05:15:27.276Z,1.70
2022-12-03T05:17:55.765Z,1.70
2022-12-03T05:20:51.320Z,1.60
2022-12-03T05:23:22.472Z,1.60
2022-12-03T05:25:50.582Z,1.60
2022-12-03T05:28:22.250Z,1.60
2022-12-03T05:30:51.669Z,1.70
2022-12-03T05:33:20.436Z,1.60
2022-12-03T05:35:51.186Z,1.60
2022-12-03T05:38:19.314Z,1.60
2022-12-03T05:40:48.774Z,1.60
2022-12-03T05:43:15.920Z,1.70
2022-12-03T05:45:46.059Z,1.80
2022-12-03T05:48:17.097Z,1.90
2022-12-03T05:50:47.591Z,2.00
2022-12-03T05:53:19.466Z,2.10
2022-12-03T05:55:48.489Z,2.20
2022-12-03T05:58:16.760Z,2.30
2022-12-03T06:00:44.804Z,2.30
2022-12-03T06:03:13.277Z,2.50
2022-12-03T06:05:41.677Z,2.50
2022-12-03T06:08:10.902Z,2.60
2022-12-03T06:10:40.973Z,2.70
2022-12-03T06:13:10.555Z,2.70
2022-12-03T06:15:43.519Z,2.80
2022-12-03T06:18:13.064Z,2.80
2022-12-03T06:20:41.205Z,2.90
2022-12-03T06:23:09.933Z,3.00
2022-12-03T06:25:38.676Z,3.10
2022-12-03T06:28:08.217Z,3.20
2022-12-03T06:30:36.347Z,3.20
2022-12-03T06:33:04.639Z,3.20
2022-12-03T06:35:33.007Z,3.30
2022-12-03T06:38:02.142Z,3.30
2022-12-03T06:40:30.316Z,3.40
2022-12-03T06:42:59.204Z,3.40
2022-12-03T06:45:29.213Z,3.40
2022-12-03T06:47:57.433Z,3.40
2022-12-03T06:50:26.223Z,3.50
2022-12-03T06:52:54.368Z,3.50
2022-12-03T06:55:22.898Z,3.50
2022-12-03T06:57:51.164Z,3.50
2022-12-03T07:00:20.790Z,3.50
2022-12-03T07:02:50.979Z,3.50
2022-12-03T07:05:20.098Z,3.50
2022-12-03T07:07:52.011Z,3.50
2022-12-03T07:10:21.037Z,3.60
2022-12-03T07:12:49.131Z,3.60
2022-12-03T07:15:18.101Z,3.60
2022-12-03T07:17:46.803Z,3.60
2022-12-03T07:20:18.437Z,3.70
2022-12-03T07:22:46.795Z,3.70
2022-12-03T07:25:21.288Z,3.70
2022-12-03T07:27:52.005Z,3.80
2022-12-03T07:30:20.321Z,3.80
2022-12-03T07:32:48.560Z,3.80
2022-12-03T07:35:18.564Z,3.80
2022-12-03T07:37:46.802Z,3.80
2022-12-03T07:40:16.005Z,3.80
2022-12-03T07:42:44.570Z,3.90
2022-12-03T07:45:12.963Z,3.90
2022-12-03T07:47:41.775Z,3.90
2022-12-03T07:50:11.627Z,4.00
2022-12-03T07:52:41.552Z,4.00
2022-12-03T07:55:13.255Z,4.00
2022-12-03T07:57:41.720Z,4.10
2022-12-03T08:00:13.451Z,4.10
2022-12-03T08:02:44.476Z,4.10
2022-12-03T08:05:13.887Z,4.10
2022-12-03T08:07:45.228Z,4.10
2022-12-03T08:10:13.629Z,4.20
2022-12-03T08:12:42.084Z,4.10
2022-12-03T08:15:17.381Z,4.20
2022-12-03T08:17:52.544Z,4.10
2022-12-03T08:20:24.433Z,4.20
2022-12-03T08:22:56.771Z,4.20
2022-12-03T08:25:28.362Z,4.10
2022-12-03T08:28:08.813Z,4.10
2022-12-03T08:30:36.936Z,4.10
2022-12-03T08:33:17.883Z,4.10
2022-12-03T08:35:52.233Z,4.10
2022-12-03T08:38:24.400Z,4.10
2022-12-03T08:40:55.488Z,4.10
2022-12-03T08:43:27.193Z,4.10
2022-12-03T08:45:57.394Z,4.10
2022-12-03T08:48:36.930Z,4.10
2022-12-03T08:51:21.727Z,4.20
2022-12-03T08:54:01.144Z,4.20
2022-12-03T08:56:34.111Z,4.10
2022-12-03T08:59:27.611Z,4.10
2022-12-03T09:01:58.481Z,4.10
2022-12-03T09:04:32.826Z,4.10
2022-12-03T09:07:01.001Z,4.10
2022-12-03T09:09:31.074Z,4.20
2022-12-03T09:11:59.564Z,4.20
2022-12-03T09:14:28.931Z,4.40
2022-12-03T09:16:59.716Z,4.30
2022-12-03T09:19:31.318Z,4.40
2022-12-03T09:21:59.996Z,4.40
2022-12-03T09:24:29.969Z,4.50
2022-12-03T09:26:58.219Z,4.40
2022-12-03T09:29:27.475Z,4.50
2022-12-03T09:31:55.734Z,4.50
2022-12-03T09:34:24.338Z,4.50
2022-12-03T09:36:52.833Z,4.50
2022-12-03T09:39:21.335Z,4.50
2022-12-03T09:41:51.237Z,4.50
2022-12-03T09:44:19.933Z,4.50
2022-12-03T09:46:49.848Z,4.50
2022-12-03T09:49:20.034Z,4.50
2022-12-03T09:51:48.867Z,4.50
2022-12-03T09:54:24.945Z,4.50
2022-12-03T09:56:57.153Z,4.50
2022-12-03T09:59:31.471Z,4.50
2022-12-03T10:02:01.386Z,4.50
2022-12-03T10:04:30.930Z,4.50
2022-12-03T10:07:00.596Z,4.60
2022-12-03T10:09:30.230Z,4.60
2022-12-03T10:12:01.343Z,4.60
2022-12-03T10:14:30.109Z,4.70
2022-12-03T10:16:59.894Z,4.70
2022-12-03T10:19:36.281Z,4.80
2022-12-03T10:22:04.952Z,4.80
2022-12-03T10:24:35.761Z,4.80
2022-12-03T10:27:20.684Z,4.80
2022-12-03T10:29:57.107Z,4.80
2022-12-03T10:32:28.437Z,4.80
2022-12-03T10:35:12.323Z,4.70
2022-12-03T10:38:00.366Z,4.70
2022-12-03T10:40:32.961Z,4.80
2022-12-03T10:43:26.755Z,4.80
2022-12-03T10:46:13.892Z,4.90
2022-12-03T10:49:12.864Z,4.90
2022-12-03T10:51:41.144Z,4.90
2022-12-03T10:54:22.002Z,4.90
2022-12-03T10:56:53.060Z,5.00
2022-12-03T10:59:26.334Z,5.00
2022-12-03T11:01:55.284Z,5.10
2022-12-03T11:04:29.477Z,5.00
2022-12-03T11:06:58.386Z,5.10
2022-12-03T11:09:32.544Z,5.10
2022-12-03T11:12:06.099Z,5.10
2022-12-03T11:15:06.503Z,5.20
2022-12-03T11:17:42.728Z,5.10
2022-12-03T11:20:31.465Z,5.20
2022-12-03T11:23:01.347Z,5.20
2022-12-03T11:25:57.619Z,5.20
2022-12-03T11:28:52.039Z,5.30
2022-12-03T11:31:41.327Z,5.20
2022-12-03T11:34:48.532Z,5.20
2022-12-03T11:37:30.246Z,5.20
2022-12-03T11:40:39.546Z,5.20
2022-12-03T11:43:12.117Z,5.20
2022-12-03T11:45:42.378Z,5.20
2022-12-03T11:48:19.088Z,5.20
2022-12-03T11:50:54.423Z,5.20
2022-12-03T11:53:26.638Z,5.20
2022-12-03T11:56:08.852Z,5.20
2022-12-03T11:58:40.155Z,5.20
2022-12-03T12:01:10.299Z,5.10
2022-12-03T12:03:47.032Z,5.10
2022-12-03T12:06:19.798Z,5.10
2022-12-03T12:08:59.731Z,5.10
2022-12-03T12:11:30.253Z,5.00
2022-12-03T12:14:01.224Z,5.00
2022-12-03T12:16:51.272Z,4.90
2022-12-03T12:19:35.432Z,4.90
2022-12-03T12:22:31.788Z,4.90
2022-12-03T12:25:02.618Z,4.80
2022-12-03T12:27:37.566Z,4.80
2022-12-03T12:30:11.150Z,4.80
2022-12-03T12:32:47.124Z,4.80
2022-12-03T12:35:21.297Z,4.70
2022-12-03T12:37:59.989Z,4.70
2022-12-03T12:40:31.332Z,4.70
2022-12-03T12:43:10.264Z,4.70
2022-12-03T12:45:43.806Z,4.70
2022-12-03T12:48:23.201Z,4.80
2022-12-03T12:51:00.033Z,4.80
2022-12-03T12:53:32.156Z,4.80
2022-12-03T12:56:08.115Z,4.80
2022-12-03T12:58:37.175Z,4.70
2022-12-03T13:01:12.483Z,4.70
2022-12-03T13:03:40.963Z,4.70
2022-12-03T13:06:17.208Z,4.70
2022-12-03T13:08:49.916Z,4.70
2022-12-03T13:11:37.003Z,4.80
2022-12-03T13:14:14.129Z,4.70
2022-12-03T13:16:43.364Z,4.80
2022-12-03T13:19:26.437Z,4.70
2022-12-03T13:21:59.175Z,4.70
2022-12-03T13:24:33.371Z,4.80
2022-12-03T13:27:21.425Z,4.80
2022-12-03T13:29:56.127Z,4.80
2022-12-03T13:32:31.217Z,4.70
2022-12-03T13:35:07.121Z,4.70
2022-12-03T13:37:39.290Z,4.60
2022-12-03T13:40:22.325Z,4.50
2022-12-03T13:42:50.496Z,4.50
2022-12-03T13:45:36.503Z,4.30
2022-12-03T13:48:20.286Z,4.20
2022-12-03T13:50:48.735Z,4.20
2022-12-03T13:53:23.527Z,4.20
2022-12-03T13:55:56.475Z,4.10
2022-12-03T13:58:25.628Z,4.00
2022-12-03T14:00:54.065Z,4.00
2022-12-03T14:03:23.286Z,4.00
2022-12-03T14:05:51.405Z,3.90
2022-12-03T14:08:21.887Z,3.90
2022-12-03T14:10:52.123Z,3.90
2022-12-03T14:13:23.502Z,3.90
2022-12-03T14:15:51.743Z,4.00
2022-12-03T14:18:20.458Z,4.00
2022-12-03T14:20:49.172Z,4.00
2022-12-03T14:23:17.695Z,3.90
2022-12-03T14:25:47.201Z,3.80
2022-12-03T14:28:15.361Z,3.80
2022-12-03T14:30:43.884Z,3.90
2022-12-03T14:33:13.073Z,3.80
2022-12-03T14:35:41.900Z,3.80
2022-12-03T14:38:10.031Z,3.80
2022-12-03T14:40:38.948Z,3.80
2022-12-03T14:43:08.454Z,3.80
2022-12-03T14:45:36.998Z,3.70
2022-12-03T14:48:05.465Z,3.70
2022-12-03T14:50:33.591Z,3.90
2022-12-03T14:53:01.932Z,3.70
2022-12-03T14:55:30.822Z,3.60
2022-12-03T14:57:59.497Z,3.70
2022-12-03T15:00:29.993Z,3.70
2022-12-03T15:02:59.078Z,3.80
2022-12-03T15:05:29.075Z,3.70
2022-12-03T15:07:57.884Z,3.70
2022-12-03T15:10:26.123Z,3.60
2022-12-03T15:12:54.611Z,3.60
2022-12-03T15:15:22.847Z,3.50
2022-12-03T15:17:52.400Z,3.50
2022-12-03T15:20:20.933Z,3.40
2022-12-03T15:22:49.809Z,3.40
2022-12-03T15:25:24.115Z,3.40
2022-12-03T15:27:53.180Z,3.40
2022-12-03T15:30:21.690Z,3.20
2022-12-03T15:32:49.913Z,3.20
2022-12-03T15:35:19.386Z,3.20
2022-12-03T15:37:47.712Z,3.20
2022-12-03T15:40:16.279Z,3.30
2022-12-03T15:42:44.556Z,3.30
2022-12-03T15:45:15.349Z,3.30
2022-12-03T15:47:44.380Z,3.30
2022-12-03T15:50:14.685Z,3.30
2022-12-03T15:52:44.127Z,3.30
2022-12-03T15:55:13.235Z,3.30
2022-12-03T15:57:41.994Z,3.20
2022-12-03T16:00:14.559Z,3.20
2022-12-03T16:02:50.759Z,3.20
2022-12-03T16:05:22.073Z,3.20
2022-12-03T16:07:52.211Z,3.10
2022-12-03T16:10:21.504Z,3.20
2022-12-03T16:12:50.801Z,3.20
2022-12-03T16:15:23.584Z,3.30
2022-12-03T16:17:55.104Z,3.30
2022-12-03T16:20:23.365Z,3.20
2022-12-03T16:22:53.616Z,3.30
2022-12-03T16:25:22.379Z,3.30
2022-12-03T16:27:51.108Z,3.20
2022-12-03T16:30:20.211Z,3.20
2022-12-03T16:32:48.633Z,3.30
2022-12-03T16:35:17.026Z,3.30
2022-12-03T16:37:45.134Z,3.30
2022-12-03T16:40:14.934Z,3.30
2022-12-03T16:42:43.248Z,3.30
2022-12-03T16:45:50.926Z,3.30
2022-12-03T16:48:20.195Z,3.30
2022-12-03T16:50:48.295Z,3.40
2022-12-03T16:53:17.315Z,3.40
2022-12-03T16:55:47.000Z,3.40
2022-12-03T16:58:15.365Z,3.40
2022-12-03T17:00:43.835Z,3.50
2022-12-03T17:03:12.691Z,3.50
2022-12-03T17:05:40.836Z,3.50
2022-12-03T17:08:09.495Z,3.40
2022-12-03T17:10:37.514Z,3.40
2022-12-03T17:13:10.152Z,3.30
2022-12-03T17:15:38.948Z,3.20
2022-12-03T17:18:08.765Z,3.20
2022-12-03T17:20:37.712Z,3.20
2022-12-03T17:23:06.422Z,3.10
2022-12-03T17:25:35.485Z,3.10
2022-12-03T17:28:03.714Z,3.10
2022-12-03T17:30:33.384Z,3.10
2022-12-03T17:33:04.100Z,3.10
2022-12-03T17:35:32.196Z,3.10
2022-12-03T17:38:02.602Z,3.10
2022-12-03T17:40:30.844Z,3.10
2022-12-03T17:42:59.028Z,3.10
2022-12-03T17:45:27.406Z,3.20
2022-12-03T17:47:57.273Z,3.20
2022-12-03T17:50:26.173Z,3.20
2022-12-03T17:52:54.295Z,3.30
2022-12-03T17:55:32.061Z,3.30
2022-12-03T17:58:05.518Z,3.30
2022-12-03T18:00:34.853Z,3.20
2022-12-03T18:03:04.627Z,3.20
2022-12-03T18:05:33.208Z,3.30
2022-12-03T18:08:01.429Z,3.10
2022-12-03T18:10:30.210Z,3.10
2022-12-03T18:13:01.980Z,3.00
2022-12-03T18:15:31.039Z,3.10
2022-12-03T18:17:59.724Z,3.00
2022-12-03T18:20:29.383Z,3.00
2022-12-03T18:22:59.917Z,3.00
2022-12-03T18:25:29.429Z,3.00
2022-12-03T18:27:58.206Z,3.00
2022-12-03T18:30:26.931Z,3.00
2022-12-03T18:32:55.084Z,3.00
2022-12-03T18:35:23.630Z,3.00
2022-12-03T18:37:53.552Z,3.00
2022-12-03T18:40:27.173Z,3.00
2022-12-03T18:42:56.561Z,3.00
2022-12-03T18:45:25.383Z,3.00
2022-12-03T18:47:53.603Z,2.90
2022-12-03T18:50:22.073Z,2.90
2022-12-03T18:52:50.548Z,2.90
2022-12-03T18:55:20.710Z,2.90
2022-12-03T18:57:49.757Z,2.80
2022-12-03T19:00:19.081Z,2.80
2022-12-03T19:03:03.912Z,2.80
2022-12-03T19:05:35.631Z,2.90
2022-12-03T19:08:12.576Z,2.90
2022-12-03T19:10:43.018Z,2.90
2022-12-03T19:13:11.542Z,2.90
2022-12-03T19:15:40.799Z,2.90
2022-12-03T19:18:09.412Z,2.90
2022-12-03T19:20:41.982Z,3.00
2022-12-03T19:23:10.513Z,3.00
2022-12-03T19:25:39.068Z,3.00
2022-12-03T19:28:09.142Z,3.00
2022-12-03T19:30:37.272Z,2.90
2022-12-03T19:33:05.759Z,3.00
2022-12-03T19:35:34.073Z,2.90
2022-12-03T19:38:02.785Z,2.90
2022-12-03T19:40:32.057Z,2.90
2022-12-03T19:43:00.875Z,2.90
2022-12-03T19:45:30.979Z,2.90
2022-12-03T19:48:00.312Z,2.90
2022-12-03T19:50:28.483Z,2.80
2022-12-03T19:52:56.688Z,2.80
2022-12-03T19:55:24.956Z,2.80
2022-12-03T19:57:53.068Z,2.80
2022-12-03T20:00:21.878Z,2.70
2022-12-03T20:02:51.657Z,2.80
2022-12-03T20:05:20.881Z,2.70
2022-12-03T20:07:50.503Z,2.70
2022-12-03T20:10:19.039Z,2.70
2022-12-03T20:12:48.732Z,2.70
2022-12-03T20:15:17.570Z,2.70
2022-12-03T20:17:45.630Z,2.70
2022-12-03T20:20:16.037Z,2.70
2022-12-03T20:22:44.353Z,2.70
2022-12-03T20:25:12.958Z,2.70
2022-12-03T20:27:41.506Z,2.70
2022-12-03T20:30:11.333Z,2.70
2022-12-03T20:32:45.028Z,2.60
2022-12-03T20:35:15.874Z,2.70
2022-12-03T20:37:43.952Z,2.70
2022-12-03T20:40:14.033Z,2.70
2022-12-03T20:42:43.018Z,2.70
2022-12-03T20:45:12.037Z,2.70
2022-12-03T20:47:40.726Z,2.60
2022-12-03T20:50:09.871Z,2.60
2022-12-03T20:52:42.935Z,2.70
2022-12-03T20:55:21.647Z,2.70
2022-12-03T20:57:51.597Z,2.70
2022-12-03T21:00:20.605Z,2.70
2022-12-03T21:02:49.220Z,2.70
2022-12-03T21:05:17.814Z,2.70
2022-12-03T21:07:49.174Z,2.70
2022-12-03T21:10:32.013Z,2.60
2022-12-03T21:13:00.128Z,2.60
2022-12-03T21:15:29.323Z,2.60
2022-12-03T21:17:57.514Z,2.60
2022-12-03T21:20:25.921Z,2.60
2022-12-03T21:22:55.797Z,2.70
2022-12-03T21:25:23.876Z,2.70
2022-12-03T21:27:52.098Z,2.70
2022-12-03T21:30:20.872Z,2.80
2022-12-03T21:32:49.274Z,2.80
2022-12-03T21:35:18.421Z,2.80
2022-12-03T21:37:47.600Z,2.80
2022-12-03T21:40:17.722Z,2.90
2022-12-03T21:42:45.829Z,3.10
2022-12-03T21:45:14.707Z,2.90
2022-12-03T21:47:42.992Z,3.00
2022-12-03T21:50:12.356Z,3.00
2022-12-03T21:52:41.679Z,2.90
2022-12-03T21:55:12.021Z,2.80
2022-12-03T21:57:41.498Z,2.80
2022-12-03T22:00:11.671Z,2.70
2022-12-03T22:02:40.577Z,2.70
2022-12-03T22:05:10.543Z,2.60
2022-12-03T22:07:40.460Z,2.60
2022-12-03T22:10:13.151Z,2.60
2022-12-03T22:12:42.858Z,2.60
2022-12-03T22:15:18.441Z,2.60
2022-12-03T22:17:47.748Z,2.60
2022-12-03T22:20:17.199Z,2.60
2022-12-03T22:22:45.422Z,2.60
2022-12-03T22:25:14.778Z,2.60
2022-12-03T22:27:44.267Z,2.60
2022-12-03T22:30:13.001Z,2.60
2022-12-03T22:32:41.859Z,2.60
2022-12-03T22:35:10.625Z,2.60
2022-12-03T22:37:39.883Z,2.60
2022-12-03T22:40:09.383Z,2.50
2022-12-03T22:42:37.484Z,2.50
2022-12-03T22:45:09.780Z,2.50
2022-12-03T22:47:37.879Z,2.50
2022-12-03T22:50:07.818Z,2.50
2022-12-03T22:52:36.096Z,2.50
2022-12-03T22:55:05.556Z,2.50
2022-12-03T22:57:34.153Z,2.50
2022-12-03T23:00:02.513Z,2.50
2022-12-03T23:02:32.148Z,2.60
2022-12-03T23:05:01.109Z,2.60
2022-12-03T23:07:29.908Z,2.60
2022-12-03T23:09:58.338Z,2.60
2022-12-03T23:12:27.861Z,2.60
2022-12-03T23:14:56.247Z,2.60
2022-12-03T23:17:24.596Z,2.60
2022-12-03T23:19:54.300Z,2.60
2022-12-03T23:22:23.945Z,2.50
2022-12-03T23:24:52.100Z,2.60
2022-12-03T23:27:20.995Z,2.60
2022-12-03T23:29:49.138Z,2.60
2022-12-03T23:32:17.386Z,2.50
2022-12-03T23:34:45.740Z,2.50
2022-12-03T23:37:17.138Z,2.50
2022-12-03T23:39:45.783Z,2.60
2022-12-03T23:42:14.109Z,2.60
2022-12-03T23:44:42.600Z,2.60
2022-12-03T23:47:11.257Z,2.60
2022-12-03T23:49:39.711Z,2.60
2022-12-03T23:52:08.751Z,2.60
2022-12-03T23:54:39.368Z,2.60
2022-12-03T23:57:07.540Z,2.60
2022-12-03T23:59:35.749Z,2.60
